Air Navigation Services of Czech Republic
Airport: LKKV Updated:  03.12.2021 19:00:28  UTC
 METAR LKKV 03.12. 19:00 ...
METAR LKKV 031900Z 21007KT 170V250 9999 OVC021 M02/M05 Q1009 RMK REG QNH 1006=
 TAF LKKV 03.12. 17:00 ...
TAF LKKV 031700Z 0318/0500 21006KT 9999 BKN025      BECMG 0319/0321 CAVOK      BECMG 0404/0406 6000 BKN012      TEMPO 0406/0410 4000 -SN OVC006      BECMG 0410/0411 2500 -RASN BR OVC004      TEMPO 0411/0500 1200 RA BR OVC003      PROB30 TEMPO 0415/0500 0500 FG VV001=